sensor_id;sensor_type;location;lat;lon;timestamp;pressure;altitude;pressure_sealevel;temperature;humidity
54453;BME280;40363;52.270;10.546;2024-03-25T00:00:30;99250.75;;;4.90;82.67
54453;BME280;40363;52.270;10.546;2024-03-25T00:02:56;99253.31;;;4.86;81.97
54453;BME280;40363;52.270;10.546;2024-03-25T00:05:23;99246.75;;;4.87;81.78
54453;BME280;40363;52.270;10.546;2024-03-25T00:07:52;99251.72;;;4.85;81.69
54453;BME280;40363;52.270;10.546;2024-03-25T00:10:18;99258.75;;;4.86;81.54
54453;BME280;40363;52.270;10.546;2024-03-25T00:12:46;99249.50;;;4.78;81.92
54453;BME280;40363;52.270;10.546;2024-03-25T00:15:12;99262.63;;;4.76;81.86
54453;BME280;40363;52.270;10.546;2024-03-25T00:17:39;99253.84;;;4.71;81.59
54453;BME280;40363;52.270;10.546;2024-03-25T00:20:07;99258.66;;;4.65;81.56
54453;BME280;40363;52.270;10.546;2024-03-25T00:22:34;99261.84;;;4.58;81.20
54453;BME280;40363;52.270;10.546;2024-03-25T00:25:01;99272.72;;;4.58;81.15
54453;BME280;40363;52.270;10.546;2024-03-25T00:27:27;99284.06;;;4.60;80.88
54453;BME280;40363;52.270;10.546;2024-03-25T00:29:54;99275.25;;;4.63;80.53
54453;BME280;40363;52.270;10.546;2024-03-25T00:32:20;99280.69;;;4.63;80.68
54453;BME280;40363;52.270;10.546;2024-03-25T00:34:48;99286.78;;;4.60;80.58
54453;BME280;40363;52.270;10.546;2024-03-25T00:37:13;99285.47;;;4.58;80.66
54453;BME280;40363;52.270;10.546;2024-03-25T00:39:40;99289.63;;;4.55;81.86
54453;BME280;40363;52.270;10.546;2024-03-25T00:42:06;99292.34;;;4.55;81.73
54453;BME280;40363;52.270;10.546;2024-03-25T00:44:33;99288.38;;;4.53;82.34
54453;BME280;40363;52.270;10.546;2024-03-25T00:46:58;99286.91;;;4.55;82.75
54453;BME280;40363;52.270;10.546;2024-03-25T00:49:25;99293.94;;;4.56;82.70
54453;BME280;40363;52.270;10.546;2024-03-25T00:51:52;99294.56;;;4.62;82.04
54453;BME280;40363;52.270;10.546;2024-03-25T00:54:19;99289.97;;;4.62;82.32
54453;BME280;40363;52.270;10.546;2024-03-25T00:56:44;99294.75;;;4.57;81.70
54453;BME280;40363;52.270;10.546;2024-03-25T00:59:11;99293.00;;;4.52;81.85
54453;BME280;40363;52.270;10.546;2024-03-25T01:01:37;99296.66;;;4.56;82.16
54453;BME280;40363;52.270;10.546;2024-03-25T01:04:04;99296.34;;;4.49;82.21
54453;BME280;40363;52.270;10.546;2024-03-25T01:06:29;99298.44;;;4.52;82.62
54453;BME280;40363;52.270;10.546;2024-03-25T01:08:58;99305.13;;;4.55;82.20
54453;BME280;40363;52.270;10.546;2024-03-25T01:11:23;99301.63;;;4.54;82.63
54453;BME280;40363;52.270;10.546;2024-03-25T01:13:50;99299.69;;;4.55;82.34
54453;BME280;40363;52.270;10.546;2024-03-25T01:16:16;99311.66;;;4.62;82.40
54453;BME280;40363;52.270;10.546;2024-03-25T01:18:42;99309.28;;;4.61;82.14
54453;BME280;40363;52.270;10.546;2024-03-25T01:21:08;99308.97;;;4.62;82.25
54453;BME280;40363;52.270;10.546;2024-03-25T01:23:36;99319.81;;;4.62;82.50
54453;BME280;40363;52.270;10.546;2024-03-25T01:26:03;99308.00;;;4.58;82.75
54453;BME280;40363;52.270;10.546;2024-03-25T01:28:30;99314.06;;;4.55;82.99
54453;BME280;40363;52.270;10.546;2024-03-25T01:30:55;99318.22;;;4.61;82.67
54453;BME280;40363;52.270;10.546;2024-03-25T01:33:22;99309.59;;;4.59;82.60
54453;BME280;40363;52.270;10.546;2024-03-25T01:35:48;99320.78;;;4.58;81.97
54453;BME280;40363;52.270;10.546;2024-03-25T01:38:14;99327.47;;;4.60;81.75
54453;BME280;40363;52.270;10.546;2024-03-25T01:40:40;99324.78;;;4.60;82.10
54453;BME280;40363;52.270;10.546;2024-03-25T01:43:08;99333.22;;;4.59;82.21
54453;BME280;40363;52.270;10.546;2024-03-25T01:45:34;99327.63;;;4.64;81.46
54453;BME280;40363;52.270;10.546;2024-03-25T01:48:04;99331.47;;;4.63;82.21
54453;BME280;40363;52.270;10.546;2024-03-25T01:50:34;99334.03;;;4.59;81.49
54453;BME280;40363;52.270;10.546;2024-03-25T01:53:02;99330.03;;;4.57;82.64
54453;BME280;40363;52.270;10.546;2024-03-25T01:55:29;99324.78;;;4.60;82.74
54453;BME280;40363;52.270;10.546;2024-03-25T01:57:57;99332.91;;;4.60;82.20
54453;BME280;40363;52.270;10.546;2024-03-25T02:00:24;99335.59;;;4.52;82.56
54453;BME280;40363;52.270;10.546;2024-03-25T02:02:53;99341.38;;;4.59;82.26
54453;BME280;40363;52.270;10.546;2024-03-25T02:05:20;99330.03;;;4.65;82.34
54453;BME280;40363;52.270;10.546;2024-03-25T02:07:48;99344.06;;;4.68;81.50
54453;BME280;40363;52.270;10.546;2024-03-25T02:10:15;99336.25;;;4.66;81.43
54453;BME280;40363;52.270;10.546;2024-03-25T02:12:42;99342.47;;;4.66;81.33
54453;BME280;40363;52.270;10.546;2024-03-25T02:15:08;99345.19;;;4.66;81.80
54453;BME280;40363;52.270;10.546;2024-03-25T02:17:37;99352.69;;;4.70;81.18
54453;BME280;40363;52.270;10.546;2024-03-25T02:20:03;99354.28;;;4.71;81.43
54453;BME280;40363;52.270;10.546;2024-03-25T02:22:31;99360.50;;;4.71;81.90
54453;BME280;40363;52.270;10.546;2024-03-25T02:24:58;99357.00;;;4.71;81.92
54453;BME280;40363;52.270;10.546;2024-03-25T02:27:27;99354.94;;;4.68;82.67
54453;BME280;40363;52.270;10.546;2024-03-25T02:29:53;99353.97;;;4.63;82.49
54453;BME280;40363;52.270;10.546;2024-03-25T02:32:20;99356.19;;;4.70;82.43
54453;BME280;40363;52.270;10.546;2024-03-25T02:34:49;99358.28;;;4.64;82.53
54453;BME280;40363;52.270;10.546;2024-03-25T02:37:15;99365.31;;;4.65;82.41
54453;BME280;40363;52.270;10.546;2024-03-25T02:39:41;99366.44;;;4.64;83.08
54453;BME280;40363;52.270;10.546;2024-03-25T02:42:08;99369.78;;;4.61;82.56
54453;BME280;40363;52.270;10.546;2024-03-25T02:44:35;99369.78;;;4.61;82.56
54453;BME280;40363;52.270;10.546;2024-03-25T02:47:02;99378.22;;;4.60;82.27
54453;BME280;40363;52.270;10.546;2024-03-25T02:49:29;99374.25;;;4.57;82.00
54453;BME280;40363;52.270;10.546;2024-03-25T02:51:56;99382.09;;;4.59;82.32
54453;BME280;40363;52.270;10.546;2024-03-25T02:54:21;99392.63;;;4.60;82.32
54453;BME280;40363;52.270;10.546;2024-03-25T02:56:48;99386.38;;;4.60;82.40
54453;BME280;40363;52.270;10.546;2024-03-25T02:59:13;99385.28;;;4.61;82.09
54453;BME280;40363;52.270;10.546;2024-03-25T03:01:41;99390.72;;;4.52;82.77
54453;BME280;40363;52.270;10.546;2024-03-25T03:04:07;99399.63;;;4.53;82.91
54453;BME280;40363;52.270;10.546;2024-03-25T03:06:33;99403.97;;;4.54;83.96
54453;BME280;40363;52.270;10.546;2024-03-25T03:08:59;99407.78;;;4.53;84.17
54453;BME280;40363;52.270;10.546;2024-03-25T03:11:25;99399.47;;;4.49;84.53
54453;BME280;40363;52.270;10.546;2024-03-25T03:13:51;99412.41;;;4.52;84.85
54453;BME280;40363;52.270;10.546;2024-03-25T03:16:17;99415.13;;;4.52;84.48
54453;BME280;40363;52.270;10.546;2024-03-25T03:18:44;99410.19;;;4.54;84.57
54453;BME280;40363;52.270;10.546;2024-03-25T03:21:11;99410.66;;;4.47;85.12
54453;BME280;40363;52.270;10.546;2024-03-25T03:23:36;99414.47;;;4.55;85.02
54453;BME280;40363;52.270;10.546;2024-03-25T03:26:03;99407.63;;;4.58;84.28
54453;BME280;40363;52.270;10.546;2024-03-25T03:28:29;99421.81;;;4.55;84.54
54453;BME280;40363;52.270;10.546;2024-03-25T03:30:55;99423.75;;;4.54;84.21
54453;BME280;40363;52.270;10.546;2024-03-25T03:33:21;99419.91;;;4.55;84.17
54453;BME280;40363;52.270;10.546;2024-03-25T03:35:49;99428.38;;;4.54;83.75
54453;BME280;40363;52.270;10.546;2024-03-25T03:38:15;99431.88;;;4.54;83.71
54453;BME280;40363;52.270;10.546;2024-03-25T03:40:41;99433.47;;;4.55;83.47
54453;BME280;40363;52.270;10.546;2024-03-25T03:43:07;99441.59;;;4.55;83.68
54453;BME280;40363;52.270;10.546;2024-03-25T03:45:33;99439.72;;;4.56;83.38
54453;BME280;40363;52.270;10.546;2024-03-25T03:47:59;99448.03;;;4.59;83.31
54453;BME280;40363;52.270;10.546;2024-03-25T03:50:26;99447.84;;;4.64;83.44
54453;BME280;40363;52.270;10.546;2024-03-25T03:52:53;99453.91;;;4.61;82.99
54453;BME280;40363;52.270;10.546;2024-03-25T03:55:19;99454.72;;;4.62;82.78
54453;BME280;40363;52.270;10.546;2024-03-25T03:57:45;99461.91;;;4.66;82.98
54453;BME280;40363;52.270;10.546;2024-03-25T04:00:12;99455.84;;;4.61;82.97
54453;BME280;40363;52.270;10.546;2024-03-25T04:02:39;99463.19;;;4.60;83.52
54453;BME280;40363;52.270;10.546;2024-03-25T04:05:06;99473.41;;;4.63;83.29
54453;BME280;40363;52.270;10.546;2024-03-25T04:07:32;99474.69;;;4.66;83.22
54453;BME280;40363;52.270;10.546;2024-03-25T04:10:00;99471.00;;;4.62;82.85
54453;BME280;40363;52.270;10.546;2024-03-25T04:12:25;99472.13;;;4.70;82.62
54453;BME280;40363;52.270;10.546;2024-03-25T04:14:52;99478.81;;;4.63;82.59
54453;BME280;40363;52.270;10.546;2024-03-25T04:17:20;99476.75;;;4.60;82.59
54453;BME280;40363;52.270;10.546;2024-03-25T04:19:48;99479.97;;;4.62;83.21
54453;BME280;40363;52.270;10.546;2024-03-25T04:22:14;99487.94;;;4.59;82.73
54453;BME280;40363;52.270;10.546;2024-03-25T04:24:40;99491.75;;;4.58;82.17
54453;BME280;40363;52.270;10.546;2024-03-25T04:27:07;99492.38;;;4.55;82.89
54453;BME280;40363;52.270;10.546;2024-03-25T04:29:34;99484.72;;;4.57;82.94
54453;BME280;40363;52.270;10.546;2024-03-25T04:31:59;99481.22;;;4.56;82.28
54453;BME280;40363;52.270;10.546;2024-03-25T04:34:27;99500.22;;;4.56;82.68
54453;BME280;40363;52.270;10.546;2024-03-25T04:36:53;99501.31;;;4.55;82.60
54453;BME280;40363;52.270;10.546;2024-03-25T04:39:19;99502.13;;;4.56;82.89
54453;BME280;40363;52.270;10.546;2024-03-25T04:41:46;99507.41;;;4.52;83.05
54453;BME280;40363;52.270;10.546;2024-03-25T04:44:13;99511.22;;;4.51;83.34
54453;BME280;40363;52.270;10.546;2024-03-25T04:46:39;99509.28;;;4.43;83.17
54453;BME280;40363;52.270;10.546;2024-03-25T04:49:04;99507.09;;;4.54;83.02
54453;BME280;40363;52.270;10.546;2024-03-25T04:51:30;99512.69;;;4.57;82.95
54453;BME280;40363;52.270;10.546;2024-03-25T04:53:56;99520.97;;;4.52;83.01
54453;BME280;40363;52.270;10.546;2024-03-25T04:56:21;99520.00;;;4.48;83.05
54453;BME280;40363;52.270;10.546;2024-03-25T04:58:47;99527.19;;;4.44;83.42
54453;BME280;40363;52.270;10.546;2024-03-25T05:01:14;99519.50;;;4.37;82.99
54453;BME280;40363;52.270;10.546;2024-03-25T05:03:40;99528.56;;;4.33;83.33
54453;BME280;40363;52.270;10.546;2024-03-25T05:06:06;99531.25;;;4.24;84.13
54453;BME280;40363;52.270;10.546;2024-03-25T05:08:31;99538.91;;;4.22;83.92
54453;BME280;40363;52.270;10.546;2024-03-25T05:10:57;99530.63;;;4.27;83.28
54453;BME280;40363;52.270;10.546;2024-03-25T05:13:23;99538.25;;;4.25;83.40
54453;BME280;40363;52.270;10.546;2024-03-25T05:15:51;99541.13;;;4.20;83.85
54453;BME280;40363;52.270;10.546;2024-03-25T05:18:19;99538.59;;;4.23;83.68
54453;BME280;40363;52.270;10.546;2024-03-25T05:20:45;99546.38;;;4.16;83.70
54453;BME280;40363;52.270;10.546;2024-03-25T05:23:11;99550.69;;;4.17;84.07
54453;BME280;40363;52.270;10.546;2024-03-25T05:25:36;99548.16;;;4.21;83.80
54453;BME280;40363;52.270;10.546;2024-03-25T05:28:03;99551.81;;;4.25;84.10
54453;BME280;40363;52.270;10.546;2024-03-25T05:30:28;99563.50;;;4.25;83.76
54453;BME280;40363;52.270;10.546;2024-03-25T05:32:54;99560.97;;;4.29;84.26
54453;BME280;40363;52.270;10.546;2024-03-25T05:35:21;99558.91;;;4.35;83.70
54453;BME280;40363;52.270;10.546;2024-03-25T05:37:47;99550.59;;;4.40;83.39
54453;BME280;40363;52.270;10.546;2024-03-25T05:40:12;99558.44;;;4.41;83.53
54453;BME280;40363;52.270;10.546;2024-03-25T05:42:38;99555.28;;;4.48;83.88
54453;BME280;40363;52.270;10.546;2024-03-25T05:45:04;99566.13;;;4.48;83.50
54453;BME280;40363;52.270;10.546;2024-03-25T05:47:30;99565.19;;;4.53;83.47
54453;BME280;40363;52.270;10.546;2024-03-25T05:49:56;99566.16;;;4.57;82.84
54453;BME280;40363;52.270;10.546;2024-03-25T05:52:23;99567.13;;;4.61;82.98
54453;BME280;40363;52.270;10.546;2024-03-25T05:54:48;99567.63;;;4.72;82.51
54453;BME280;40363;52.270;10.546;2024-03-25T05:57:14;99566.38;;;4.95;81.24
54453;BME280;40363;52.270;10.546;2024-03-25T05:59:40;99573.75;;;4.95;81.26
54453;BME280;40363;52.270;10.546;2024-03-25T06:02:06;99582.69;;;4.95;80.92
54453;BME280;40363;52.270;10.546;2024-03-25T06:04:34;99594.38;;;4.96;81.13
54453;BME280;40363;52.270;10.546;2024-03-25T06:07:00;99584.16;;;5.10;80.87
54453;BME280;40363;52.270;10.546;2024-03-25T06:09:27;99593.88;;;5.02;81.37
54453;BME280;40363;52.270;10.546;2024-03-25T06:11:53;99602.03;;;5.02;81.02
54453;BME280;40363;52.270;10.546;2024-03-25T06:14:18;99602.03;;;5.02;81.01
54453;BME280;40363;52.270;10.546;2024-03-25T06:16:44;99600.28;;;5.07;81.00
54453;BME280;40363;52.270;10.546;2024-03-25T06:19:10;99607.31;;;5.08;81.27
54453;BME280;40363;52.270;10.546;2024-03-25T06:21:35;99603.16;;;5.01;81.39
54453;BME280;40363;52.270;10.546;2024-03-25T06:24:01;99610.22;;;5.11;81.07
54453;BME280;40363;52.270;10.546;2024-03-25T06:26:28;99614.03;;;5.10;81.19
54453;BME280;40363;52.270;10.546;2024-03-25T06:28:53;99616.91;;;5.05;81.47
54453;BME280;40363;52.270;10.546;2024-03-25T06:31:19;99621.69;;;4.99;81.74
54453;BME280;40363;52.270;10.546;2024-03-25T06:34:03;99633.19;;;5.05;81.75
54453;BME280;40363;52.270;10.546;2024-03-25T06:36:41;99625.22;;;5.09;81.68
54453;BME280;40363;52.270;10.546;2024-03-25T06:39:06;99626.47;;;5.02;81.41
54453;BME280;40363;52.270;10.546;2024-03-25T06:41:34;99619.28;;;4.98;81.49
54453;BME280;40363;52.270;10.546;2024-03-25T06:43:59;99630.47;;;5.05;81.52
54453;BME280;40363;52.270;10.546;2024-03-25T06:46:25;99632.88;;;5.07;81.96
54453;BME280;40363;52.270;10.546;2024-03-25T06:48:51;99643.44;;;5.08;81.88
54453;BME280;40363;52.270;10.546;2024-03-25T06:51:16;99639.78;;;5.13;82.08
54453;BME280;40363;52.270;10.546;2024-03-25T06:53:42;99638.47;;;5.19;82.64
54453;BME280;40363;52.270;10.546;2024-03-25T06:56:07;99650.63;;;5.13;82.31
54453;BME280;40363;52.270;10.546;2024-03-25T06:58:35;99655.09;;;5.17;82.62
54453;BME280;40363;52.270;10.546;2024-03-25T07:01:04;99656.25;;;5.25;83.01
54453;BME280;40363;52.270;10.546;2024-03-25T07:03:30;99652.91;;;5.28;83.05
54453;BME280;40363;52.270;10.546;2024-03-25T07:05:56;99651.59;;;5.34;82.79
54453;BME280;40363;52.270;10.546;2024-03-25T07:08:21;99652.44;;;5.44;82.01
54453;BME280;40363;52.270;10.546;2024-03-25T07:10:47;99656.91;;;5.48;81.18
54453;BME280;40363;52.270;10.546;2024-03-25T07:13:13;99658.34;;;5.54;80.75
54453;BME280;40363;52.270;10.546;2024-03-25T07:15:40;99661.25;;;5.67;80.61
54453;BME280;40363;52.270;10.546;2024-03-25T07:18:07;99660.09;;;5.76;79.77
54453;BME280;40363;52.270;10.546;2024-03-25T07:20:33;99671.97;;;5.98;79.27
54453;BME280;40363;52.270;10.546;2024-03-25T07:22:59;99666.81;;;6.05;79.12
54453;BME280;40363;52.270;10.546;2024-03-25T07:25:25;99666.50;;;6.07;78.71
54453;BME280;40363;52.270;10.546;2024-03-25T07:27:51;99671.16;;;6.06;78.71
54453;BME280;40363;52.270;10.546;2024-03-25T07:30:17;99671.94;;;5.89;78.71
54453;BME280;40363;52.270;10.546;2024-03-25T07:32:44;99679.31;;;5.89;78.95
54453;BME280;40363;52.270;10.546;2024-03-25T07:35:10;99678.19;;;5.90;79.09
54453;BME280;40363;52.270;10.546;2024-03-25T07:37:36;99675.13;;;5.91;79.65
54453;BME280;40363;52.270;10.546;2024-03-25T07:40:02;99675.97;;;6.01;79.59
54453;BME280;40363;52.270;10.546;2024-03-25T07:42:28;99680.09;;;6.07;79.85
54453;BME280;40363;52.270;10.546;2024-03-25T07:44:54;99684.28;;;6.13;79.31
54453;BME280;40363;52.270;10.546;2024-03-25T07:47:20;99688.13;;;6.21;78.79
54453;BME280;40363;52.270;10.546;2024-03-25T07:49:47;99690.34;;;6.27;77.66
54453;BME280;40363;52.270;10.546;2024-03-25T07:52:12;99688.09;;;6.29;78.11
54453;BME280;40363;52.270;10.546;2024-03-25T07:54:38;99695.28;;;6.25;77.54
54453;BME280;40363;52.270;10.546;2024-03-25T07:57:04;99697.09;;;6.12;78.32
54453;BME280;40363;52.270;10.546;2024-03-25T07:59:30;99690.03;;;6.11;77.43
54453;BME280;40363;52.270;10.546;2024-03-25T08:01:56;99707.66;;;6.14;77.58
54453;BME280;40363;52.270;10.546;2024-03-25T08:04:22;99703.94;;;6.19;77.70
54453;BME280;40363;52.270;10.546;2024-03-25T08:06:49;99708.59;;;6.18;77.34
54453;BME280;40363;52.270;10.546;2024-03-25T08:09:14;99709.34;;;6.45;76.63
54453;BME280;40363;52.270;10.546;2024-03-25T08:11:40;99710.78;;;6.51;76.26
54453;BME280;40363;52.270;10.546;2024-03-25T08:14:06;99706.41;;;6.59;75.43
54453;BME280;40363;52.270;10.546;2024-03-25T08:16:31;99712.97;;;6.66;74.56
54453;BME280;40363;52.270;10.546;2024-03-25T08:18:57;99711.81;;;6.76;74.90
54453;BME280;40363;52.270;10.546;2024-03-25T08:21:23;99712.88;;;6.93;73.99
54453;BME280;40363;52.270;10.546;2024-03-25T08:23:50;99707.09;;;6.94;71.80
54453;BME280;40363;52.270;10.546;2024-03-25T08:26:15;99714.84;;;7.13;71.35
54453;BME280;40363;52.270;10.546;2024-03-25T08:28:41;99713.97;;;7.30;70.70
54453;BME280;40363;52.270;10.546;2024-03-25T08:31:06;99709.97;;;7.57;69.19
54453;BME280;40363;52.270;10.546;2024-03-25T08:33:32;99712.91;;;7.43;70.19
54453;BME280;40363;52.270;10.546;2024-03-25T08:35:58;99722.31;;;7.34;71.00
54453;BME280;40363;52.270;10.546;2024-03-25T08:38:23;99722.69;;;7.15;70.59
54453;BME280;40363;52.270;10.546;2024-03-25T08:40:50;99725.66;;;7.01;71.38
54453;BME280;40363;52.270;10.546;2024-03-25T08:43:16;99726.53;;;6.84;71.05
54453;BME280;40363;52.270;10.546;2024-03-25T08:45:42;99721.91;;;6.76;71.48
54453;BME280;40363;52.270;10.546;2024-03-25T08:48:08;99731.03;;;6.71;72.34
54453;BME280;40363;52.270;10.546;2024-03-25T08:50:33;99736.06;;;6.60;72.14
54453;BME280;40363;52.270;10.546;2024-03-25T08:52:59;99730.63;;;6.51;71.77
54453;BME280;40363;52.270;10.546;2024-03-25T08:55:25;99725.94;;;6.61;71.46
54453;BME280;40363;52.270;10.546;2024-03-25T08:57:52;99728.97;;;6.77;70.98
54453;BME280;40363;52.270;10.546;2024-03-25T09:00:18;99736.06;;;7.07;70.12
54453;BME280;40363;52.270;10.546;2024-03-25T09:02:44;99726.41;;;7.40;68.69
54453;BME280;40363;52.270;10.546;2024-03-25T09:05:09;99728.75;;;7.50;67.50
54453;BME280;40363;52.270;10.546;2024-03-25T09:07:35;99738.88;;;7.50;67.47
54453;BME280;40363;52.270;10.546;2024-03-25T09:10:01;99729.59;;;7.42;68.07
54453;BME280;40363;52.270;10.546;2024-03-25T09:12:45;99732.34;;;7.42;68.58
54453;BME280;40363;52.270;10.546;2024-03-25T09:15:12;99726.59;;;7.35;68.16
54453;BME280;40363;52.270;10.546;2024-03-25T09:17:37;99732.25;;;7.30;66.80
54453;BME280;40363;52.270;10.546;2024-03-25T09:20:04;99739.69;;;7.20;66.54
54453;BME280;40363;52.270;10.546;2024-03-25T09:22:30;99740.56;;;7.33;66.18
54453;BME280;40363;52.270;10.546;2024-03-25T09:24:55;99736.94;;;7.50;67.59
54453;BME280;40363;52.270;10.546;2024-03-25T09:27:21;99739.47;;;7.55;67.04
54453;BME280;40363;52.270;10.546;2024-03-25T09:29:46;99739.28;;;7.60;67.15
54453;BME280;40363;52.270;10.546;2024-03-25T09:32:13;99743.28;;;7.84;66.75
54453;BME280;40363;52.270;10.546;2024-03-25T09:34:39;99734.03;;;7.97;65.52
54453;BME280;40363;52.270;10.546;2024-03-25T09:37:05;99740.41;;;8.23;65.57
54453;BME280;40363;52.270;10.546;2024-03-25T09:39:31;99737.72;;;8.56;63.94
54453;BME280;40363;52.270;10.546;2024-03-25T09:41:57;99739.84;;;8.84;62.02
54453;BME280;40363;52.270;10.546;2024-03-25T09:44:28;99741.66;;;9.29;60.85
54453;BME280;40363;52.270;10.546;2024-03-25T09:46:56;99741.09;;;9.48;59.52
54453;BME280;40363;52.270;10.546;2024-03-25T09:49:24;99735.88;;;9.43;59.57
54453;BME280;40363;52.270;10.546;2024-03-25T09:51:51;99732.56;;;9.25;59.74
54453;BME280;40363;52.270;10.546;2024-03-25T09:54:16;99738.47;;;8.90;61.23
54453;BME280;40363;52.270;10.546;2024-03-25T09:56:42;99749.81;;;8.80;59.24
54453;BME280;40363;52.270;10.546;2024-03-25T09:59:08;99747.22;;;8.83;59.00
54453;BME280;40363;52.270;10.546;2024-03-25T10:01:35;99751.59;;;8.63;58.95
54453;BME280;40363;52.270;10.546;2024-03-25T10:04:00;99736.59;;;8.36;58.41
54453;BME280;40363;52.270;10.546;2024-03-25T10:06:27;99748.00;;;8.17;57.27
54453;BME280;40363;52.270;10.546;2024-03-25T10:08:53;99751.16;;;8.07;55.19
54453;BME280;40363;52.270;10.546;2024-03-25T10:11:19;99749.28;;;7.98;53.93
54453;BME280;40363;52.270;10.546;2024-03-25T10:13:45;99747.16;;;7.83;52.93
54453;BME280;40363;52.270;10.546;2024-03-25T10:16:11;99746.84;;;7.85;53.55
54453;BME280;40363;52.270;10.546;2024-03-25T10:18:36;99751.44;;;7.93;52.72
54453;BME280;40363;52.270;10.546;2024-03-25T10:21:02;99753.75;;;8.03;52.73
54453;BME280;40363;52.270;10.546;2024-03-25T10:23:29;99746.34;;;8.04;52.83
54453;BME280;40363;52.270;10.546;2024-03-25T10:25:55;99760.91;;;8.08;54.26
54453;BME280;40363;52.270;10.546;2024-03-25T10:28:21;99754.53;;;8.04;54.96
54453;BME280;40363;52.270;10.546;2024-03-25T10:30:47;99750.91;;;7.99;55.83
54453;BME280;40363;52.270;10.546;2024-03-25T10:33:13;99752.81;;;8.20;56.01
54453;BME280;40363;52.270;10.546;2024-03-25T10:35:40;99751.84;;;8.37;56.18
54453;BME280;40363;52.270;10.546;2024-03-25T10:38:10;99748.34;;;8.36;56.07
54453;BME280;40363;52.270;10.546;2024-03-25T10:40:38;99740.69;;;8.30;53.54
54453;BME280;40363;52.270;10.546;2024-03-25T10:43:05;99756.41;;;8.12;52.17
54453;BME280;40363;52.270;10.546;2024-03-25T10:45:33;99757.34;;;7.95;50.61
54453;BME280;40363;52.270;10.546;2024-03-25T10:48:02;99750.56;;;8.01;50.91
54453;BME280;40363;52.270;10.546;2024-03-25T10:50:29;99747.28;;;8.08;51.17
54453;BME280;40363;52.270;10.546;2024-03-25T10:52:57;99748.47;;;8.19;52.80
54453;BME280;40363;52.270;10.546;2024-03-25T10:55:24;99756.91;;;8.26;54.63
54453;BME280;40363;52.270;10.546;2024-03-25T10:57:51;99748.22;;;8.12;55.80
54453;BME280;40363;52.270;10.546;2024-03-25T11:00:19;99753.88;;;8.07;56.43
54453;BME280;40363;52.270;10.546;2024-03-25T11:02:45;99743.41;;;8.09;57.53
54453;BME280;40363;52.270;10.546;2024-03-25T11:05:11;99743.41;;;8.09;56.95
54453;BME280;40363;52.270;10.546;2024-03-25T11:07:37;99744.69;;;8.11;57.18
54453;BME280;40363;52.270;10.546;2024-03-25T11:10:04;99744.09;;;8.06;57.70
54453;BME280;40363;52.270;10.546;2024-03-25T11:12:35;99741.63;;;8.13;56.53
54453;BME280;40363;52.270;10.546;2024-03-25T11:15:04;99734.38;;;8.17;56.59
54453;BME280;40363;52.270;10.546;2024-03-25T11:17:30;99740.53;;;8.26;56.77
54453;BME280;40363;52.270;10.546;2024-03-25T11:20:06;99738.88;;;8.55;57.08
54453;BME280;40363;52.270;10.546;2024-03-25T11:22:33;99734.09;;;8.77;55.31
54453;BME280;40363;52.270;10.546;2024-03-25T11:25:05;99738.25;;;9.07;54.93
54453;BME280;40363;52.270;10.546;2024-03-25T11:27:31;99730.84;;;9.08;54.82
54453;BME280;40363;52.270;10.546;2024-03-25T11:29:57;99727.88;;;9.25;54.69
54453;BME280;40363;52.270;10.546;2024-03-25T11:32:24;99726.88;;;9.30;53.42
54453;BME280;40363;52.270;10.546;2024-03-25T11:34:52;99727.31;;;9.32;53.56
54453;BME280;40363;52.270;10.546;2024-03-25T11:37:17;99728.69;;;9.26;52.30
54453;BME280;40363;52.270;10.546;2024-03-25T11:39:43;99720.81;;;9.00;50.49
54453;BME280;40363;52.270;10.546;2024-03-25T11:42:09;99731.53;;;9.05;49.98
54453;BME280;40363;52.270;10.546;2024-03-25T11:44:37;99717.41;;;9.03;50.14
54453;BME280;40363;52.270;10.546;2024-03-25T11:47:04;99733.03;;;9.15;50.14
54453;BME280;40363;52.270;10.546;2024-03-25T11:49:31;99734.16;;;9.01;51.00
54453;BME280;40363;52.270;10.546;2024-03-25T11:51:58;99721.16;;;9.23;50.23
54453;BME280;40363;52.270;10.546;2024-03-25T11:54:27;99733.81;;;9.03;51.18
54453;BME280;40363;52.270;10.546;2024-03-25T11:56:53;99729.81;;;9.00;50.86
54453;BME280;40363;52.270;10.546;2024-03-25T11:59:19;99728.44;;;9.06;50.69
54453;BME280;40363;52.270;10.546;2024-03-25T12:01:45;99723.09;;;8.98;51.22
54453;BME280;40363;52.270;10.546;2024-03-25T12:04:11;99723.00;;;9.06;52.04
54453;BME280;40363;52.270;10.546;2024-03-25T12:06:38;99725.47;;;9.24;52.09
54453;BME280;40363;52.270;10.546;2024-03-25T12:09:04;99717.41;;;9.40;52.26
54453;BME280;40363;52.270;10.546;2024-03-25T12:11:48;99717.28;;;9.48;51.55
54453;BME280;40363;52.270;10.546;2024-03-25T12:14:13;99726.38;;;9.53;50.43
54453;BME280;40363;52.270;10.546;2024-03-25T12:16:40;99715.97;;;9.71;49.36
54453;BME280;40363;52.270;10.546;2024-03-25T12:19:06;99718.91;;;9.90;49.43
54453;BME280;40363;52.270;10.546;2024-03-25T12:21:31;99714.94;;;9.75;49.90
54453;BME280;40363;52.270;10.546;2024-03-25T12:23:59;99708.69;;;9.62;49.74
54453;BME280;40363;52.270;10.546;2024-03-25T12:26:25;99719.53;;;9.59;49.76
54453;BME280;40363;52.270;10.546;2024-03-25T12:28:50;99734.03;;;9.35;50.59
54453;BME280;40363;52.270;10.546;2024-03-25T12:31:17;99727.44;;;9.23;50.66
54453;BME280;40363;52.270;10.546;2024-03-25T12:33:43;99722.53;;;9.04;51.15
54453;BME280;40363;52.270;10.546;2024-03-25T12:36:09;99722.50;;;8.92;51.63
54453;BME280;40363;52.270;10.546;2024-03-25T12:38:34;99717.75;;;8.89;52.25
54453;BME280;40363;52.270;10.546;2024-03-25T12:41:06;99724.09;;;8.81;52.62
54453;BME280;40363;52.270;10.546;2024-03-25T12:43:32;99725.34;;;8.71;52.99
54453;BME280;40363;52.270;10.546;2024-03-25T12:45:58;99725.34;;;8.71;52.11
54453;BME280;40363;52.270;10.546;2024-03-25T12:48:23;99725.34;;;8.71;51.57
54453;BME280;40363;52.270;10.546;2024-03-25T12:50:49;99730.25;;;8.90;51.03
54453;BME280;40363;52.270;10.546;2024-03-25T12:53:17;99718.53;;;9.02;50.80
54453;BME280;40363;52.270;10.546;2024-03-25T12:55:43;99719.91;;;9.08;50.58